createdAt,value
2019-04-21T00:00:10.211Z,61.80
2019-04-21T00:01:08.692Z,61.60
2019-04-21T00:02:05.625Z,61.60
2019-04-21T00:03:10.020Z,60.90
2019-04-21T00:04:22.839Z,57.90
2019-04-21T00:05:26.122Z,59.20
2019-04-21T00:06:22.359Z,58.50
2019-04-21T00:07:27.755Z,59.50
2019-04-21T00:08:33.592Z,58.50
2019-04-21T00:09:25.460Z,63.30
2019-04-21T00:10:28.708Z,62.80
2019-04-21T00:11:30.083Z,66.90
2019-04-21T00:12:22.061Z,62.70
2019-04-21T00:13:22.611Z,62.70
2019-04-21T00:14:18.405Z,61.10
2019-04-21T00:15:19.401Z,62.60
2019-04-21T00:16:10.667Z,63.50
2019-04-21T00:17:09.733Z,64.30
2019-04-21T00:18:08.595Z,63.50
2019-04-21T00:19:13.887Z,65.20
2019-04-21T00:20:17.620Z,62.20
2019-04-21T00:21:14.875Z,65.00
2019-04-21T00:22:14.888Z,65.70
2019-04-21T00:23:22.665Z,66.90
2019-04-21T00:24:20.321Z,63.60
2019-04-21T00:25:20.724Z,66.30
2019-04-21T00:26:23.957Z,66.30
2019-04-21T00:27:20.232Z,71.30
2019-04-21T00:28:31.221Z,71.30
2019-04-21T00:29:33.038Z,70.20
2019-04-21T00:30:31.833Z,71.10
2019-04-21T00:31:24.769Z,75.30
2019-04-21T00:32:17.952Z,72.80
2019-04-21T00:33:09.178Z,75.80
2019-04-21T00:34:05.192Z,71.20
2019-04-21T00:35:09.962Z,76.20
2019-04-21T00:36:13.361Z,74.40
2019-04-21T00:37:15.539Z,71.20
2019-04-21T00:38:25.259Z,72.30
2019-04-21T00:39:37.188Z,70.00
2019-04-21T00:40:30.350Z,73.40
2019-04-21T00:41:25.104Z,73.60
2019-04-21T00:42:24.124Z,73.40
2019-04-21T00:43:26.579Z,77.70
2019-04-21T00:44:17.303Z,78.70
2019-04-21T00:45:18.190Z,82.00
2019-04-21T00:46:17.525Z,80.50
2019-04-21T00:47:26.671Z,78.60
2019-04-21T00:48:29.872Z,76.70
2019-04-21T00:49:19.708Z,73.80
2019-04-21T00:50:25.643Z,70.50
2019-04-21T00:51:34.372Z,73.70
2019-04-21T00:52:39.686Z,73.90
2019-04-21T00:53:35.764Z,74.40
2019-04-21T00:54:33.076Z,72.50
2019-04-21T00:55:35.483Z,71.90
2019-04-21T00:56:29.672Z,76.10
2019-04-21T00:57:34.336Z,77.90
2019-04-21T00:58:30.410Z,79.00
2019-04-21T00:59:25.645Z,76.90
2019-04-21T01:00:30.736Z,81.80
2019-04-21T01:01:25.283Z,85.10
2019-04-21T01:02:24.742Z,87.30
2019-04-21T01:03:26.747Z,88.70
2019-04-21T01:04:31.806Z,94.60
2019-04-21T01:05:34.050Z,99.00
2019-04-21T01:06:33.172Z,101.40
2019-04-21T01:07:28.186Z,99.10
2019-04-21T01:08:25.255Z,98.70
2019-04-21T01:09:25.940Z,101.50
2019-04-21T01:10:17.444Z,98.40
2019-04-21T01:11:23.993Z,98.40
2019-04-21T01:12:26.887Z,100.30
2019-04-21T01:13:27.294Z,103.80
2019-04-21T01:14:34.786Z,102.90
2019-04-21T01:15:32.519Z,107.60
2019-04-21T01:16:31.575Z,110.30
2019-04-21T01:17:28.835Z,110.80
2019-04-21T01:18:31.445Z,107.00
2019-04-21T01:19:21.668Z,113.80
2019-04-21T01:20:16.003Z,118.10
2019-04-21T01:21:13.745Z,119.40
2019-04-21T01:22:04.628Z,120.50
2019-04-21T01:23:04.366Z,130.40
2019-04-21T01:24:11.812Z,126.80
2019-04-21T01:25:13.404Z,131.60
2019-04-21T01:26:18.015Z,130.70
2019-04-21T01:27:12.671Z,135.30
2019-04-21T01:28:21.359Z,133.50
2019-04-21T01:29:19.329Z,133.70
2019-04-21T01:30:26.515Z,138.50
2019-04-21T01:31:22.907Z,137.40
2019-04-21T01:32:29.533Z,129.40
2019-04-21T01:33:27.795Z,126.10
2019-04-21T01:34:24.886Z,126.90
2019-04-21T01:35:30.081Z,127.50
2019-04-21T01:36:24.562Z,132.20
2019-04-21T01:37:20.739Z,120.30
2019-04-21T01:38:32.017Z,124.10
2019-04-21T01:39:27.157Z,119.80
2019-04-21T01:40:29.046Z,123.70
2019-04-21T01:41:29.890Z,123.80
2019-04-21T01:42:25.632Z,130.00
2019-04-21T01:43:24.987Z,121.80
2019-04-21T01:44:29.810Z,103.70
2019-04-21T01:45:22.423Z,102.60
2019-04-21T01:46:19.542Z,111.60
2019-04-21T01:47:20.459Z,122.10
2019-04-21T01:48:21.025Z,117.10
2019-04-21T01:49:15.793Z,127.20
2019-04-21T01:50:21.095Z,123.80
2019-04-21T01:51:18.940Z,127.10
2019-04-21T01:52:34.997Z,125.10
2019-04-21T01:53:31.061Z,121.80
2019-04-21T01:54:31.252Z,128.40
2019-04-21T01:55:26.382Z,129.50
2019-04-21T01:56:29.310Z,128.90
2019-04-21T01:57:23.105Z,124.80
2019-04-21T01:58:19.765Z,126.00
2019-04-21T01:59:14.111Z,129.60
2019-04-21T02:00:13.319Z,134.10
2019-04-21T02:01:24.632Z,129.20
2019-04-21T02:02:23.010Z,129.30
2019-04-21T02:03:43.399Z,130.90
2019-04-21T02:04:34.727Z,128.20
2019-04-21T02:05:31.318Z,130.00
2019-04-21T02:06:27.637Z,128.90
2019-04-21T02:07:27.052Z,127.30
2019-04-21T02:08:25.651Z,131.20
2019-04-21T02:09:24.005Z,125.70
2019-04-21T02:10:26.657Z,132.80
2019-04-21T02:11:44.353Z,130.70
2019-04-21T02:12:25.263Z,133.90
2019-04-21T02:13:23.153Z,134.10
2019-04-21T02:14:31.174Z,133.70
2019-04-21T02:15:29.687Z,130.00
2019-04-21T02:16:23.109Z,137.20
2019-04-21T02:17:23.843Z,130.10
2019-04-21T02:18:24.314Z,133.80
2019-04-21T02:19:18.027Z,135.20
2019-04-21T02:20:19.402Z,134.70
2019-04-21T02:21:17.974Z,136.50
2019-04-21T02:22:27.232Z,134.90
2019-04-21T02:23:34.544Z,142.60
2019-04-21T02:24:38.721Z,142.10
2019-04-21T02:25:26.054Z,143.70
2019-04-21T02:26:31.613Z,146.40
2019-04-21T02:27:23.803Z,143.50
2019-04-21T02:28:29.844Z,145.40
2019-04-21T02:29:29.061Z,142.20
2019-04-21T02:30:36.184Z,146.30
2019-04-21T02:31:39.539Z,139.60
2019-04-21T02:32:35.354Z,140.70
2019-04-21T02:33:39.138Z,142.90
2019-04-21T02:34:44.122Z,146.00
2019-04-21T02:35:38.500Z,147.30
2019-04-21T02:36:51.389Z,147.50
2019-04-21T02:37:44.581Z,148.80
2019-04-21T02:38:39.849Z,148.20
2019-04-21T02:40:39.042Z,137.40
2019-04-21T02:42:37.775Z,144.40
2019-04-21T02:43:58.230Z,133.90
2019-04-21T02:44:37.512Z,141.50
2019-04-21T02:45:43.492Z,137.50
2019-04-21T02:47:50.666Z,137.70
2019-04-21T02:48:38.855Z,134.30
2019-04-21T02:49:45.224Z,136.00
2019-04-21T02:50:37.590Z,131.00
2019-04-21T02:51:36.857Z,134.60
2019-04-21T02:52:37.393Z,132.50
2019-04-21T02:53:48.275Z,133.30
2019-04-21T02:55:28.987Z,128.40
2019-04-21T02:56:52.927Z,128.20
2019-04-21T02:57:41.244Z,125.20
2019-04-21T02:58:58.354Z,121.60
2019-04-21T02:59:33.740Z,123.50
2019-04-21T03:02:43.060Z,126.20
2019-04-21T03:04:36.149Z,126.70
2019-04-21T03:05:42.441Z,126.10
2019-04-21T03:06:45.751Z,124.70
2019-04-21T03:07:44.727Z,126.80
2019-04-21T03:09:45.901Z,127.50
2019-04-21T03:11:28.641Z,127.00
2019-04-21T03:12:28.653Z,126.30
2019-04-21T03:15:45.083Z,119.30
2019-04-21T03:16:34.767Z,120.70
2019-04-21T03:17:43.625Z,123.20
2019-04-21T03:18:48.570Z,125.20
2019-04-21T03:21:38.351Z,123.30
2019-04-21T03:25:04.270Z,130.60
2019-04-21T03:26:40.346Z,129.50
2019-04-21T03:28:37.006Z,136.20
2019-04-21T03:29:40.208Z,136.40
2019-04-21T03:32:14.340Z,143.80
2019-04-21T03:33:08.437Z,139.80
2019-04-21T03:35:00.256Z,141.30
2019-04-21T03:36:52.839Z,149.60
2019-04-21T03:38:37.655Z,146.00
2019-04-21T03:39:36.663Z,145.70
2019-04-21T03:41:39.989Z,142.90
2019-04-21T03:42:38.968Z,137.50
2019-04-21T03:43:40.151Z,139.20
2019-04-21T03:44:37.402Z,135.20
2019-04-21T03:46:42.167Z,139.10
2019-04-21T03:47:36.075Z,134.10
2019-04-21T03:48:36.649Z,137.90
2019-04-21T03:49:48.118Z,136.60
2019-04-21T03:52:39.274Z,134.10
2019-04-21T03:53:32.049Z,131.30
2019-04-21T03:54:37.158Z,127.20
2019-04-21T03:56:52.449Z,128.30
2019-04-21T03:57:46.364Z,133.90
2019-04-21T03:58:47.455Z,129.80
2019-04-21T03:59:25.801Z,130.60
2019-04-21T04:01:32.377Z,139.30
2019-04-21T04:02:52.359Z,137.30
2019-04-21T04:05:48.159Z,135.50
2019-04-21T04:06:35.537Z,136.20
2019-04-21T04:07:44.220Z,131.60
2019-04-21T04:09:37.586Z,131.70
2019-04-21T04:10:31.678Z,132.10
2019-04-21T04:11:37.769Z,126.50
2019-04-21T04:12:34.991Z,123.80
2019-04-21T04:14:40.001Z,123.60
2019-04-21T04:15:39.466Z,122.30
2019-04-21T04:19:42.015Z,118.00
2019-04-21T04:23:41.622Z,124.60
2019-04-21T04:24:49.336Z,120.60
2019-04-21T04:26:42.926Z,118.50
2019-04-21T04:27:49.464Z,113.00
2019-04-21T04:34:42.023Z,119.60
2019-04-21T04:35:42.379Z,122.50
2019-04-21T04:36:50.024Z,123.30
2019-04-21T04:38:39.280Z,121.00
2019-04-21T04:39:45.988Z,118.90
2019-04-21T04:41:53.203Z,115.50
2019-04-21T04:42:41.094Z,113.20
2019-04-21T04:43:39.056Z,115.00
2019-04-21T04:44:50.051Z,106.60
2019-04-21T04:45:44.179Z,107.40
2019-04-21T04:46:44.264Z,109.20
2019-04-21T04:49:46.389Z,105.50
2019-04-21T04:50:45.493Z,107.10
2019-04-21T04:51:44.382Z,107.40
2019-04-21T04:55:33.502Z,101.00
2019-04-21T04:56:31.444Z,103.20
2019-04-21T04:57:46.985Z,102.20
2019-04-21T05:00:35.080Z,100.60
2019-04-21T05:01:55.448Z,101.70
2019-04-21T05:03:43.906Z,103.60
2019-04-21T05:04:46.221Z,97.60
2019-04-21T05:05:44.998Z,97.10
2019-04-21T05:07:42.853Z,96.20
2019-04-21T05:08:44.853Z,97.90
2019-04-21T05:10:43.110Z,96.50
2019-04-21T05:12:32.486Z,98.30
2019-04-21T05:13:34.506Z,97.40
2019-04-21T05:14:30.119Z,105.70
2019-04-21T05:15:25.525Z,105.60
2019-04-21T05:16:41.129Z,113.20
2019-04-21T05:17:37.849Z,110.60
2019-04-21T05:18:35.179Z,112.90
2019-04-21T05:19:53.977Z,114.80
2019-04-21T05:20:23.772Z,117.30
2019-04-21T05:21:37.555Z,120.20
2019-04-21T05:23:28.755Z,109.00
2019-04-21T05:24:25.601Z,108.40
2019-04-21T05:25:20.859Z,111.80
2019-04-21T05:26:14.335Z,107.00
2019-04-21T05:27:16.633Z,106.50
2019-04-21T05:28:16.446Z,104.30
2019-04-21T05:29:18.477Z,103.60
2019-04-21T05:30:29.593Z,104.40
2019-04-21T05:31:27.096Z,103.40
2019-04-21T05:32:26.445Z,106.20
2019-04-21T05:33:27.566Z,104.00
2019-04-21T05:34:23.300Z,101.60
2019-04-21T05:35:20.089Z,104.50
2019-04-21T05:36:20.496Z,107.00
2019-04-21T05:37:25.934Z,106.50
2019-04-21T05:38:21.837Z,108.30
2019-04-21T05:39:18.788Z,112.20
2019-04-21T05:40:19.576Z,117.10
2019-04-21T05:41:14.935Z,116.90
2019-04-21T05:42:11.024Z,116.90
2019-04-21T05:43:21.362Z,117.70
2019-04-21T05:44:33.303Z,112.30
2019-04-21T05:45:26.897Z,112.00
2019-04-21T05:46:26.112Z,105.60
2019-04-21T05:47:29.878Z,108.40
2019-04-21T05:49:22.000Z,101.20
2019-04-21T05:50:19.085Z,66.00
2019-04-21T05:51:20.522Z,63.80
2019-04-21T05:52:21.055Z,63.50
2019-04-21T05:53:31.286Z,64.20
2019-04-21T05:54:29.432Z,62.60
2019-04-21T05:55:31.747Z,60.10
2019-04-21T05:56:25.122Z,62.60
2019-04-21T05:57:22.228Z,61.20
2019-04-21T05:58:21.013Z,61.20
2019-04-21T05:59:23.566Z,63.40
2019-04-21T06:00:31.021Z,58.60
2019-04-21T06:01:39.338Z,60.20
2019-04-21T06:02:38.498Z,60.20
2019-04-21T06:03:29.291Z,57.80
2019-04-21T06:04:41.562Z,58.80
2019-04-21T06:05:31.819Z,58.30
2019-04-21T06:06:26.221Z,59.90
2019-04-21T06:08:29.753Z,55.40
2019-04-21T06:09:27.226Z,56.00
2019-04-21T06:10:27.334Z,56.50
2019-04-21T06:11:25.231Z,57.70
2019-04-21T06:12:21.330Z,51.90
2019-04-21T06:13:26.814Z,53.10
2019-04-21T06:14:29.340Z,53.10
2019-04-21T06:15:29.355Z,51.80
2019-04-21T06:16:30.309Z,54.60
2019-04-21T06:17:31.433Z,52.50
2019-04-21T06:18:27.077Z,54.30
2019-04-21T06:19:31.171Z,52.70
2019-04-21T06:20:27.211Z,50.90
2019-04-21T06:21:25.166Z,49.70
2019-04-21T06:22:18.860Z,47.40
2019-04-21T06:23:25.745Z,51.20
2019-04-21T06:24:25.168Z,50.60
2019-04-21T06:25:50.033Z,48.80
2019-04-21T06:27:27.992Z,51.40
2019-04-21T06:28:30.320Z,51.50
2019-04-21T06:29:23.699Z,47.50
2019-04-21T06:30:27.721Z,49.90
2019-04-21T06:31:33.786Z,47.30
2019-04-21T06:32:38.510Z,50.50
2019-04-21T06:33:33.391Z,50.10
2019-04-21T06:34:24.883Z,50.40
2019-04-21T06:35:37.769Z,51.90
2019-04-21T06:36:38.758Z,52.50
2019-04-21T06:37:40.212Z,51.20
2019-04-21T06:38:35.973Z,53.20
2019-04-21T06:39:25.185Z,58.40
2019-04-21T06:40:30.533Z,57.00
2019-04-21T06:42:23.855Z,50.50
2019-04-21T06:43:38.577Z,52.60
2019-04-21T06:44:23.989Z,50.80
2019-04-21T06:45:27.592Z,53.70
2019-04-21T06:46:30.879Z,51.70
2019-04-21T06:47:32.454Z,56.10
2019-04-21T06:48:24.577Z,60.00
2019-04-21T06:49:20.406Z,59.80
2019-04-21T06:50:22.743Z,58.90
2019-04-21T06:51:28.890Z,61.40
2019-04-21T06:53:29.590Z,62.50
2019-04-21T06:54:23.562Z,60.70
2019-04-21T06:55:26.457Z,59.60
2019-04-21T06:56:32.339Z,55.60
2019-04-21T06:57:28.958Z,54.20
2019-04-21T06:58:28.971Z,53.10
2019-04-21T06:59:21.092Z,56.20
2019-04-21T07:00:18.522Z,56.70
2019-04-21T07:01:26.562Z,57.90
2019-04-21T07:02:36.075Z,54.50
2019-04-21T07:03:40.531Z,60.50
2019-04-21T07:04:31.513Z,59.00
2019-04-21T07:05:26.336Z,62.20
2019-04-21T07:06:26.370Z,63.00
2019-04-21T07:07:25.610Z,67.00
2019-04-21T07:09:25.509Z,67.10
2019-04-21T07:11:21.111Z,75.60
2019-04-21T07:12:23.195Z,75.60
2019-04-21T07:13:22.275Z,73.00
2019-04-21T07:14:30.064Z,74.10
2019-04-21T07:15:25.302Z,75.20
2019-04-21T07:16:25.620Z,88.40
2019-04-21T07:17:24.340Z,90.50
2019-04-21T07:18:30.052Z,88.60
2019-04-21T07:19:30.865Z,89.60
2019-04-21T07:20:21.975Z,96.70
2019-04-21T07:21:21.872Z,104.80
2019-04-21T07:22:24.476Z,97.20
2019-04-21T07:23:28.545Z,102.00
2019-04-21T07:24:25.115Z,104.20
2019-04-21T07:25:26.461Z,110.40
2019-04-21T07:26:27.878Z,120.00
2019-04-21T07:27:22.256Z,124.90
2019-04-21T07:28:25.118Z,130.40
2019-04-21T07:29:29.813Z,133.10
2019-04-21T07:30:28.008Z,136.50
2019-04-21T07:31:25.294Z,136.60
2019-04-21T07:32:20.914Z,148.70
2019-04-21T07:33:41.504Z,158.80
2019-04-21T07:34:28.521Z,158.10
2019-04-21T07:35:22.118Z,161.60
2019-04-21T07:36:32.355Z,166.00
2019-04-21T07:37:25.488Z,171.00
2019-04-21T07:38:21.176Z,181.20
2019-04-21T07:39:18.509Z,175.60
2019-04-21T07:40:17.796Z,181.90
2019-04-21T07:41:15.937Z,178.70
2019-04-21T07:42:18.573Z,182.50
2019-04-21T07:43:18.177Z,180.80
2019-04-21T07:44:16.825Z,188.10
2019-04-21T07:45:16.884Z,180.20
2019-04-21T07:46:16.845Z,185.90
2019-04-21T07:47:23.502Z,191.60
2019-04-21T07:48:18.999Z,193.80
2019-04-21T07:49:19.221Z,196.30
2019-04-21T07:50:24.193Z,190.90
2019-04-21T07:51:25.363Z,192.10
2019-04-21T07:52:22.164Z,191.60
2019-04-21T07:53:27.703Z,188.30
2019-04-21T07:54:33.838Z,197.30
2019-04-21T07:56:07.238Z,197.80
2019-04-21T07:57:16.836Z,208.30
2019-04-21T07:58:22.521Z,207.70
2019-04-21T07:59:28.158Z,212.40
2019-04-21T08:01:28.840Z,212.40
2019-04-21T08:02:22.209Z,224.90
2019-04-21T08:03:24.988Z,218.60
2019-04-21T08:04:39.320Z,217.60
2019-04-21T08:05:24.860Z,222.60
2019-04-21T08:06:22.756Z,218.20
2019-04-21T08:07:21.952Z,213.20
2019-04-21T08:08:20.792Z,219.70
2019-04-21T08:09:18.951Z,222.80
2019-04-21T08:10:16.086Z,217.20
2019-04-21T08:11:24.321Z,222.40
2019-04-21T08:12:16.033Z,227.10
2019-04-21T08:13:28.774Z,232.10
2019-04-21T08:14:24.216Z,221.90
2019-04-21T08:15:30.695Z,225.10
2019-04-21T08:16:24.162Z,222.90
2019-04-21T08:17:16.231Z,222.10
2019-04-21T08:18:21.057Z,219.40
2019-04-21T08:19:19.194Z,232.40
2019-04-21T08:20:18.814Z,222.60
2019-04-21T08:21:23.633Z,226.70
2019-04-21T08:22:27.168Z,236.00
2019-04-21T08:23:21.589Z,232.90
2019-04-21T08:24:20.076Z,239.20
2019-04-21T08:25:21.817Z,225.10
2019-04-21T08:26:17.456Z,231.20
2019-04-21T08:28:21.066Z,226.60
2019-04-21T08:29:29.707Z,235.80
2019-04-21T08:30:20.439Z,239.70
2019-04-21T08:31:25.749Z,230.00
2019-04-21T08:32:26.562Z,231.80
2019-04-21T08:33:26.262Z,226.90
2019-04-21T08:34:22.604Z,224.10
2019-04-21T08:35:49.723Z,233.40
2019-04-21T08:37:13.941Z,222.40
2019-04-21T08:38:13.583Z,234.30
2019-04-21T08:39:13.201Z,237.30
2019-04-21T08:40:17.710Z,230.20
2019-04-21T08:41:15.221Z,236.30
2019-04-21T08:42:10.932Z,226.60
2019-04-21T08:43:22.821Z,236.00
2019-04-21T08:44:10.534Z,224.60
2019-04-21T08:45:16.258Z,240.10
2019-04-21T08:46:16.066Z,233.70
2019-04-21T08:47:15.497Z,238.10
2019-04-21T08:49:15.006Z,229.90
2019-04-21T08:50:16.614Z,232.00
2019-04-21T08:52:21.302Z,227.30
2019-04-21T08:53:12.541Z,228.20
2019-04-21T08:54:15.168Z,227.80
2019-04-21T08:55:22.563Z,230.10
2019-04-21T08:56:16.453Z,237.60
2019-04-21T08:57:14.554Z,248.10
2019-04-21T08:59:18.941Z,234.00
2019-04-21T09:01:17.819Z,241.00
2019-04-21T09:02:15.851Z,240.40
2019-04-21T09:03:14.310Z,226.80
2019-04-21T09:04:12.788Z,215.80
2019-04-21T09:05:12.617Z,228.90
2019-04-21T09:06:17.554Z,225.30
2019-04-21T09:07:18.239Z,230.80
2019-04-21T09:08:13.429Z,236.20
2019-04-21T09:10:09.374Z,216.90
2019-04-21T09:11:11.488Z,220.30
2019-04-21T09:12:10.283Z,214.80
2019-04-21T09:13:10.278Z,205.60
2019-04-21T09:14:13.075Z,214.80
2019-04-21T09:15:14.067Z,220.90
2019-04-21T09:16:08.503Z,216.30
2019-04-21T09:17:06.517Z,204.80
2019-04-21T09:18:08.730Z,211.30
2019-04-21T09:19:11.747Z,206.50
2019-04-21T09:20:17.212Z,205.80
2019-04-21T09:21:14.859Z,206.50
2019-04-21T09:22:14.198Z,206.30
2019-04-21T09:23:13.299Z,204.50
2019-04-21T09:24:11.533Z,187.50
2019-04-21T09:25:16.287Z,181.00
2019-04-21T09:26:14.094Z,189.30
2019-04-21T09:27:08.386Z,193.90
2019-04-21T09:28:12.613Z,195.70
2019-04-21T09:29:05.710Z,207.20
2019-04-21T09:29:57.560Z,200.50
2019-04-21T09:30:57.881Z,199.60
2019-04-21T09:31:57.313Z,183.40
2019-04-21T09:32:56.383Z,184.20
2019-04-21T09:33:56.977Z,188.30
2019-04-21T09:34:53.052Z,193.80
2019-04-21T09:35:56.362Z,185.10
2019-04-21T09:37:03.330Z,195.50
2019-04-21T09:37:59.622Z,179.30
2019-04-21T09:39:01.168Z,177.40
2019-04-21T09:39:55.937Z,181.40
2019-04-21T09:40:54.513Z,185.60
2019-04-21T09:41:56.539Z,182.80
2019-04-21T09:42:59.507Z,173.20
2019-04-21T09:43:55.860Z,162.70
2019-04-21T09:44:57.014Z,155.10
2019-04-21T09:45:54.241Z,154.80
2019-04-21T09:46:54.938Z,152.90
2019-04-21T09:48:01.033Z,159.20
2019-04-21T09:49:00.349Z,165.20
2019-04-21T09:49:54.313Z,167.30
2019-04-21T09:50:52.468Z,158.90
2019-04-21T09:51:52.968Z,142.40
2019-04-21T09:52:57.688Z,143.10
2019-04-21T09:54:00.918Z,151.00
2019-04-21T09:55:02.095Z,146.70
2019-04-21T09:55:58.200Z,145.00
2019-04-21T09:56:58.552Z,124.50
2019-04-21T09:57:56.963Z,130.50
2019-04-21T09:59:03.815Z,129.50
2019-04-21T10:00:03.865Z,125.10
2019-04-21T10:01:04.872Z,132.60
2019-04-21T10:02:03.647Z,130.80
2019-04-21T10:03:00.914Z,132.10
2019-04-21T10:03:57.195Z,129.80
2019-04-21T10:04:52.809Z,124.60
2019-04-21T10:05:52.072Z,128.00
2019-04-21T10:06:51.978Z,130.30
2019-04-21T10:07:53.010Z,121.10
2019-04-21T10:08:58.326Z,118.10
2019-04-21T10:09:52.672Z,117.80
2019-04-21T10:10:51.660Z,119.40
2019-04-21T10:11:52.769Z,122.00
2019-04-21T10:12:52.021Z,120.30
2019-04-21T10:13:52.928Z,118.50
2019-04-21T10:14:51.846Z,120.80
2019-04-21T10:15:51.951Z,122.70
2019-04-21T10:16:51.656Z,111.30
2019-04-21T10:17:52.022Z,119.70
2019-04-21T10:18:52.361Z,128.80
2019-04-21T10:19:52.764Z,122.40
2019-04-21T10:20:51.548Z,114.60
2019-04-21T10:21:52.031Z,119.40
2019-04-21T10:22:51.571Z,113.50
2019-04-21T10:23:52.246Z,116.60
2019-04-21T10:24:52.179Z,110.30
2019-04-21T10:25:52.558Z,112.80
2019-04-21T10:26:51.487Z,111.60
2019-04-21T10:27:52.760Z,106.60
2019-04-21T10:28:52.936Z,113.10
2019-04-21T10:29:52.256Z,119.10
2019-04-21T10:30:52.827Z,110.10
2019-04-21T10:31:52.442Z,106.70
2019-04-21T10:32:52.451Z,118.10
2019-04-21T10:33:52.527Z,113.50
2019-04-21T10:34:52.758Z,105.50
2019-04-21T10:35:51.401Z,112.20
2019-04-21T10:36:51.473Z,110.50
2019-04-21T10:38:03.478Z,110.90
2019-04-21T10:38:53.937Z,108.80
2019-04-21T10:39:51.601Z,119.10
2019-04-21T10:40:51.749Z,107.50
2019-04-21T10:41:51.332Z,106.60
2019-04-21T10:42:52.250Z,109.90
2019-04-21T10:43:51.518Z,102.90
2019-04-21T10:44:52.612Z,103.80
2019-04-21T10:45:52.767Z,107.50
2019-04-21T10:46:52.532Z,104.50
2019-04-21T10:47:52.716Z,102.90
2019-04-21T10:48:52.559Z,102.10
2019-04-21T10:49:51.246Z,104.10
2019-04-21T10:50:51.234Z,98.20
2019-04-21T10:51:51.284Z,100.50
2019-04-21T10:52:51.218Z,103.90
2019-04-21T10:53:53.889Z,103.60
2019-04-21T10:55:15.072Z,107.60
2019-04-21T10:56:06.474Z,110.40
2019-04-21T10:56:52.611Z,102.00
2019-04-21T10:57:51.148Z,102.20
2019-04-21T10:58:52.180Z,91.30
2019-04-21T10:59:54.117Z,99.00
2019-04-21T11:00:52.708Z,97.80
2019-04-21T11:01:51.105Z,95.70
2019-04-21T11:02:51.095Z,90.30
2019-04-21T11:03:51.133Z,90.70
2019-04-21T11:04:51.161Z,95.10
2019-04-21T11:05:52.584Z,94.90
2019-04-21T11:06:51.056Z,96.10
2019-04-21T11:08:01.171Z,93.40
2019-04-21T11:08:55.367Z,89.70
2019-04-21T11:09:51.859Z,95.80
2019-04-21T11:10:51.942Z,95.40
2019-04-21T11:11:53.161Z,103.00
2019-04-21T11:12:51.015Z,99.00
2019-04-21T11:13:51.001Z,94.40
2019-04-21T11:14:51.454Z,90.50
2019-04-21T11:15:51.041Z,93.50
2019-04-21T11:16:52.930Z,93.90
2019-04-21T11:17:52.239Z,97.70
2019-04-21T11:18:51.627Z,96.20
2019-04-21T11:19:50.916Z,95.10
2019-04-21T11:20:51.193Z,89.70
2019-04-21T11:21:50.906Z,95.00
2019-04-21T11:22:51.401Z,95.40
2019-04-21T11:23:52.110Z,87.60
2019-04-21T11:24:51.140Z,89.70
2019-04-21T11:25:51.680Z,91.30
2019-04-21T11:26:51.957Z,92.30
2019-04-21T11:27:51.212Z,87.60
2019-04-21T11:28:50.883Z,90.10
2019-04-21T11:29:51.692Z,86.70
2019-04-21T11:30:51.034Z,85.70
2019-04-21T11:31:51.348Z,94.90
2019-04-21T11:32:51.116Z,89.20
2019-04-21T11:33:51.190Z,83.40
2019-04-21T11:34:51.511Z,80.00
2019-04-21T11:35:51.227Z,94.80
2019-04-21T11:36:52.158Z,96.40
2019-04-21T11:37:50.745Z,97.20
2019-04-21T11:39:06.113Z,95.60
2019-04-21T11:39:59.367Z,91.60
2019-04-21T11:40:51.843Z,86.10
2019-04-21T11:41:51.904Z,87.60
2019-04-21T11:42:51.549Z,86.70
2019-04-21T11:43:50.896Z,94.10
2019-04-21T11:44:51.487Z,91.00
2019-04-21T11:45:50.631Z,95.00
2019-04-21T11:46:50.623Z,91.10
2019-04-21T11:47:50.625Z,87.20
2019-04-21T11:48:50.602Z,98.10
2019-04-21T11:49:50.607Z,91.60
2019-04-21T11:50:50.965Z,92.00
2019-04-21T11:51:51.160Z,86.00
2019-04-21T11:52:50.557Z,84.90
2019-04-21T11:53:50.810Z,86.60
2019-04-21T11:54:50.925Z,84.90
2019-04-21T11:55:53.208Z,85.40
2019-04-21T11:56:50.715Z,83.60
2019-04-21T11:57:51.757Z,86.00
2019-04-21T11:58:51.834Z,76.40
2019-04-21T11:59:51.402Z,79.90
2019-04-21T12:00:52.063Z,86.10
2019-04-21T12:01:51.720Z,77.30
2019-04-21T12:02:51.167Z,80.00
2019-04-21T12:03:51.717Z,85.60
2019-04-21T12:04:51.556Z,86.90
2019-04-21T12:05:51.200Z,80.50
2019-04-21T12:06:51.157Z,85.10
2019-04-21T12:07:51.316Z,82.50
2019-04-21T12:08:52.887Z,85.80
2019-04-21T12:09:51.307Z,75.30
2019-04-21T12:10:51.518Z,74.70
2019-04-21T12:11:51.442Z,77.10
2019-04-21T12:12:50.999Z,74.30
2019-04-21T12:13:50.346Z,73.20
2019-04-21T12:14:50.363Z,76.60
2019-04-21T12:15:50.352Z,79.00
2019-04-21T12:16:50.911Z,82.40
2019-04-21T12:17:50.288Z,82.70
2019-04-21T12:18:51.206Z,79.80
2019-04-21T12:19:50.699Z,80.30
2019-04-21T12:20:51.612Z,75.60
2019-04-21T12:22:01.176Z,76.70
2019-04-21T12:22:51.252Z,74.30
2019-04-21T12:23:50.347Z,74.70
2019-04-21T12:24:51.299Z,70.40
2019-04-21T12:25:51.467Z,72.10
2019-04-21T12:26:50.233Z,68.50
2019-04-21T12:27:50.201Z,75.60
2019-04-21T12:28:50.252Z,70.20
2019-04-21T12:29:51.569Z,70.10
2019-04-21T12:30:51.577Z,79.30
2019-04-21T12:31:50.152Z,78.40
2019-04-21T12:32:50.132Z,77.00
2019-04-21T12:33:50.124Z,74.20
2019-04-21T12:34:51.841Z,71.60
2019-04-21T12:35:51.478Z,68.60
2019-04-21T12:36:50.761Z,73.00
2019-04-21T12:37:51.017Z,78.30
2019-04-21T12:38:55.900Z,82.00
2019-04-21T12:39:52.480Z,78.10
2019-04-21T12:40:50.746Z,76.10
2019-04-21T12:41:50.811Z,75.10
2019-04-21T12:42:50.486Z,73.50
2019-04-21T12:43:50.747Z,71.20
2019-04-21T12:44:50.080Z,72.30
2019-04-21T12:45:50.008Z,74.20
2019-04-21T12:46:50.103Z,70.10
2019-04-21T12:47:50.731Z,74.10
2019-04-21T12:48:49.967Z,70.80
2019-04-21T12:49:50.025Z,69.50
2019-04-21T12:50:49.997Z,69.40
2019-04-21T12:51:51.426Z,70.20
2019-04-21T12:52:49.943Z,70.10
2019-04-21T12:53:49.940Z,72.90
2019-04-21T12:54:51.381Z,66.30
2019-04-21T12:55:50.032Z,70.40
2019-04-21T12:56:49.903Z,64.70
2019-04-21T12:57:49.873Z,66.10
2019-04-21T12:58:51.345Z,64.90
2019-04-21T12:59:50.907Z,65.10
2019-04-21T13:00:51.553Z,65.20
2019-04-21T13:01:50.751Z,65.40
2019-04-21T13:02:49.899Z,61.00
2019-04-21T13:03:50.045Z,61.70
2019-04-21T13:04:52.200Z,66.10
2019-04-21T13:05:49.906Z,62.90
2019-04-21T13:06:49.952Z,61.50
2019-04-21T13:07:50.961Z,61.60
2019-04-21T13:08:54.491Z,64.50
2019-04-21T13:09:50.753Z,59.70
2019-04-21T13:10:49.808Z,58.50
2019-04-21T13:11:50.900Z,61.60
2019-04-21T13:12:50.077Z,62.80
2019-04-21T13:13:50.189Z,62.70
2019-04-21T13:14:49.732Z,63.50
2019-04-21T13:15:49.759Z,67.00
2019-04-21T13:16:49.795Z,62.50
2019-04-21T13:17:50.214Z,65.20
2019-04-21T13:18:49.714Z,67.80
2019-04-21T13:19:49.702Z,70.80
2019-04-21T13:20:49.705Z,64.90
2019-04-21T13:21:49.926Z,62.50
2019-04-21T13:22:50.294Z,62.70
2019-04-21T13:23:50.428Z,66.80
2019-04-21T13:24:49.667Z,64.20
2019-04-21T13:25:49.985Z,64.00
2019-04-21T13:26:55.965Z,66.50
2019-04-21T13:27:50.556Z,64.10
2019-04-21T13:28:50.081Z,64.80
2019-04-21T13:29:50.401Z,60.40
2019-04-21T13:30:50.684Z,67.20
2019-04-21T13:31:50.035Z,66.60
2019-04-21T13:32:51.073Z,64.80
2019-04-21T13:33:50.210Z,60.80
2019-04-21T13:34:50.923Z,62.80
2019-04-21T13:35:50.803Z,62.80
2019-04-21T13:36:49.878Z,63.10
2019-04-21T13:37:50.694Z,69.70
2019-04-21T13:39:23.303Z,63.20
2019-04-21T13:40:16.418Z,60.70
2019-04-21T13:41:05.370Z,63.00
2019-04-21T13:42:05.603Z,59.00
2019-04-21T13:42:55.081Z,63.70
2019-04-21T13:43:50.861Z,69.50
2019-04-21T13:44:50.858Z,60.80
2019-04-21T13:45:49.922Z,66.40
2019-04-21T13:46:49.380Z,66.80
2019-04-21T13:47:50.373Z,73.70
2019-04-21T13:48:50.739Z,77.10
2019-04-21T13:49:49.614Z,70.80
2019-04-21T13:50:49.328Z,70.00
2019-04-21T13:51:50.050Z,69.80
2019-04-21T13:52:49.299Z,68.70